sensor_id;sensor_type;location;lat;lon;timestamp;pressure;altitude;pressure_sealevel;temperature;humidity
20710;BME280;10516;51.518;9.864;2023-03-07T00:02:23;97173.44;;;1.90;82.17
20710;BME280;10516;51.518;9.864;2023-03-07T00:04:49;97170.25;;;1.88;82.02
20710;BME280;10516;51.518;9.864;2023-03-07T00:07:14;97174.59;;;1.82;82.23
20710;BME280;10516;51.518;9.864;2023-03-07T00:09:39;97172.66;;;1.78;82.47
20710;BME280;10516;51.518;9.864;2023-03-07T00:12:05;97157.84;;;2.00;81.82
20710;BME280;10516;51.518;9.864;2023-03-07T00:14:31;97166.47;;;1.84;82.36
20710;BME280;10516;51.518;9.864;2023-03-07T00:16:57;97155.94;;;1.84;82.06
20710;BME280;10516;51.518;9.864;2023-03-07T00:19:22;97157.16;;;1.65;82.93
20710;BME280;10516;51.518;9.864;2023-03-07T00:21:47;97148.84;;;1.56;83.31
20710;BME280;10516;51.518;9.864;2023-03-07T00:24:12;97146.88;;;1.63;83.25
20710;BME280;10516;51.518;9.864;2023-03-07T00:26:37;97142.94;;;1.77;82.39
20710;BME280;10516;51.518;9.864;2023-03-07T00:29:04;97137.50;;;1.56;82.87
20710;BME280;10516;51.518;9.864;2023-03-07T00:31:30;97137.00;;;1.42;83.56
20710;BME280;10516;51.518;9.864;2023-03-07T00:33:55;97132.78;;;1.29;84.43
20710;BME280;10516;51.518;9.864;2023-03-07T00:36:21;97117.94;;;1.23;84.06
20710;BME280;10516;51.518;9.864;2023-03-07T00:38:46;97116.31;;;1.45;83.20
20710;BME280;10516;51.518;9.864;2023-03-07T00:41:21;97105.81;;;1.34;83.74
20710;BME280;10516;51.518;9.864;2023-03-07T00:43:47;97104.59;;;1.53;83.10
20710;BME280;10516;51.518;9.864;2023-03-07T00:46:16;97104.84;;;1.51;83.08
20710;BME280;10516;51.518;9.864;2023-03-07T00:48:42;97101.75;;;1.55;83.18
20710;BME280;10516;51.518;9.864;2023-03-07T00:51:08;97105.41;;;1.53;83.04
20710;BME280;10516;51.518;9.864;2023-03-07T00:53:34;97087.50;;;1.50;83.28
20710;BME280;10516;51.518;9.864;2023-03-07T00:56:00;97092.38;;;1.59;82.81
20710;BME280;10516;51.518;9.864;2023-03-07T00:58:26;97090.75;;;1.29;83.66
20710;BME280;10516;51.518;9.864;2023-03-07T01:00:52;97076.28;;;1.55;83.32
20710;BME280;10516;51.518;9.864;2023-03-07T01:03:18;97080.03;;;1.19;84.66
20710;BME280;10516;51.518;9.864;2023-03-07T01:05:43;97067.19;;;1.34;83.81
20710;BME280;10516;51.518;9.864;2023-03-07T01:08:09;97074.19;;;1.29;83.69
20710;BME280;10516;51.518;9.864;2023-03-07T01:10:34;97061.69;;;1.36;83.70
20710;BME280;10516;51.518;9.864;2023-03-07T01:12:59;97064.88;;;1.38;83.99
20710;BME280;10516;51.518;9.864;2023-03-07T01:15:24;97053.38;;;1.56;83.23
20710;BME280;10516;51.518;9.864;2023-03-07T01:17:50;97053.34;;;1.39;83.48
20710;BME280;10516;51.518;9.864;2023-03-07T01:20:15;97055.84;;;1.45;83.46
20710;BME280;10516;51.518;9.864;2023-03-07T01:22:41;97042.16;;;1.43;83.88
20710;BME280;10516;51.518;9.864;2023-03-07T01:25:06;97047.28;;;1.38;83.45
20710;BME280;10516;51.518;9.864;2023-03-07T01:27:31;97037.47;;;1.34;83.78
20710;BME280;10516;51.518;9.864;2023-03-07T01:29:56;97035.19;;;1.37;83.49
20710;BME280;10516;51.518;9.864;2023-03-07T01:32:22;97028.47;;;1.30;84.00
20710;BME280;10516;51.518;9.864;2023-03-07T01:34:47;97026.94;;;1.17;84.38
20710;BME280;10516;51.518;9.864;2023-03-07T01:37:12;97020.72;;;1.23;84.45
20710;BME280;10516;51.518;9.864;2023-03-07T01:39:37;97027.66;;;1.29;84.04
20710;BME280;10516;51.518;9.864;2023-03-07T01:42:03;97014.50;;;1.13;84.88
20710;BME280;10516;51.518;9.864;2023-03-07T01:44:28;97007.53;;;1.07;84.89
20710;BME280;10516;51.518;9.864;2023-03-07T01:46:54;97005.41;;;1.20;84.61
20710;BME280;10516;51.518;9.864;2023-03-07T01:51:47;97004.41;;;1.21;84.46
20710;BME280;10516;51.518;9.864;2023-03-07T01:54:14;96989.53;;;1.27;84.46
20710;BME280;10516;51.518;9.864;2023-03-07T01:56:40;96981.41;;;1.28;84.27
20710;BME280;10516;51.518;9.864;2023-03-07T01:59:07;96986.25;;;1.20;84.38
20710;BME280;10516;51.518;9.864;2023-03-07T02:01:32;96971.09;;;1.10;84.47
20710;BME280;10516;51.518;9.864;2023-03-07T02:04:00;96978.94;;;1.22;84.50
20710;BME280;10516;51.518;9.864;2023-03-07T02:06:27;96969.31;;;0.99;85.21
20710;BME280;10516;51.518;9.864;2023-03-07T02:08:55;96953.97;;;1.08;84.73
20710;BME280;10516;51.518;9.864;2023-03-07T02:11:20;96963.59;;;1.02;84.51
20710;BME280;10516;51.518;9.864;2023-03-07T02:13:46;96966.66;;;1.11;84.77
20710;BME280;10516;51.518;9.864;2023-03-07T02:16:11;96961.31;;;1.22;84.11
20710;BME280;10516;51.518;9.864;2023-03-07T02:18:39;96950.34;;;1.25;84.36
20710;BME280;10516;51.518;9.864;2023-03-07T02:21:13;96940.22;;;1.17;84.55
20710;BME280;10516;51.518;9.864;2023-03-07T02:26:19;96934.19;;;1.33;83.70
20710;BME280;10516;51.518;9.864;2023-03-07T02:28:46;96927.91;;;1.34;84.12
20710;BME280;10516;51.518;9.864;2023-03-07T02:31:11;96914.47;;;1.31;84.11
20710;BME280;10516;51.518;9.864;2023-03-07T02:33:37;96928.06;;;1.28;84.52
20710;BME280;10516;51.518;9.864;2023-03-07T02:36:06;96928.88;;;1.28;84.34
20710;BME280;10516;51.518;9.864;2023-03-07T02:38:33;96921.84;;;1.34;84.10
20710;BME280;10516;51.518;9.864;2023-03-07T02:41:02;96920.22;;;1.16;84.69
20710;BME280;10516;51.518;9.864;2023-03-07T02:43:28;96909.97;;;1.31;84.33
20710;BME280;10516;51.518;9.864;2023-03-07T02:45:53;96915.78;;;1.33;84.20
20710;BME280;10516;51.518;9.864;2023-03-07T02:48:19;96907.03;;;1.28;84.17
20710;BME280;10516;51.518;9.864;2023-03-07T02:50:46;96912.19;;;1.23;84.89
20710;BME280;10516;51.518;9.864;2023-03-07T02:53:11;96909.53;;;1.34;84.41
20710;BME280;10516;51.518;9.864;2023-03-07T02:55:36;96903.50;;;1.22;85.26
20710;BME280;10516;51.518;9.864;2023-03-07T02:58:01;96904.41;;;1.28;84.77
20710;BME280;10516;51.518;9.864;2023-03-07T03:00:27;96900.03;;;1.33;84.33
20710;BME280;10516;51.518;9.864;2023-03-07T03:02:52;96898.75;;;1.19;85.01
20710;BME280;10516;51.518;9.864;2023-03-07T03:05:17;96893.91;;;1.28;84.77
20710;BME280;10516;51.518;9.864;2023-03-07T03:07:42;96892.09;;;1.28;84.66
20710;BME280;10516;51.518;9.864;2023-03-07T03:10:08;96892.63;;;1.30;84.29
20710;BME280;10516;51.518;9.864;2023-03-07T03:12:33;96890.31;;;1.34;84.36
20710;BME280;10516;51.518;9.864;2023-03-07T03:14:58;96889.66;;;1.27;84.66
20710;BME280;10516;51.518;9.864;2023-03-07T03:17:24;96888.63;;;1.11;84.66
20710;BME280;10516;51.518;9.864;2023-03-07T03:19:49;96882.94;;;1.31;84.43
20710;BME280;10516;51.518;9.864;2023-03-07T03:22:14;96878.44;;;1.31;84.54
20710;BME280;10516;51.518;9.864;2023-03-07T03:24:40;96878.00;;;1.34;84.33
20710;BME280;10516;51.518;9.864;2023-03-07T03:27:06;96885.63;;;1.36;84.26
20710;BME280;10516;51.518;9.864;2023-03-07T03:29:31;96887.69;;;1.34;84.57
20710;BME280;10516;51.518;9.864;2023-03-07T03:31:56;96871.88;;;1.29;84.72
20710;BME280;10516;51.518;9.864;2023-03-07T03:34:22;96875.91;;;1.20;85.09
20710;BME280;10516;51.518;9.864;2023-03-07T03:36:47;96877.50;;;1.21;84.89
20710;BME280;10516;51.518;9.864;2023-03-07T03:39:12;96883.09;;;1.24;84.86
20710;BME280;10516;51.518;9.864;2023-03-07T03:41:38;96872.94;;;1.16;85.21
20710;BME280;10516;51.518;9.864;2023-03-07T03:44:03;96879.00;;;1.33;85.16
20710;BME280;10516;51.518;9.864;2023-03-07T03:46:29;96874.91;;;1.37;84.68
20710;BME280;10516;51.518;9.864;2023-03-07T03:48:54;96877.19;;;1.34;84.77
20710;BME280;10516;51.518;9.864;2023-03-07T03:51:20;96877.34;;;1.27;84.74
20710;BME280;10516;51.518;9.864;2023-03-07T03:53:45;96867.47;;;1.34;84.76
20710;BME280;10516;51.518;9.864;2023-03-07T03:56:14;96875.75;;;1.26;85.31
20710;BME280;10516;51.518;9.864;2023-03-07T03:58:40;96867.63;;;1.28;84.77
20710;BME280;10516;51.518;9.864;2023-03-07T04:01:07;96871.94;;;1.34;85.01
20710;BME280;10516;51.518;9.864;2023-03-07T04:03:33;96869.34;;;1.22;85.40
20710;BME280;10516;51.518;9.864;2023-03-07T04:06:00;96869.25;;;1.29;85.43
20710;BME280;10516;51.518;9.864;2023-03-07T04:08:25;96857.38;;;1.26;85.18
20710;BME280;10516;51.518;9.864;2023-03-07T04:10:50;96852.66;;;1.28;85.35
20710;BME280;10516;51.518;9.864;2023-03-07T04:13:15;96855.75;;;1.25;85.46
20710;BME280;10516;51.518;9.864;2023-03-07T04:15:41;96850.59;;;1.30;85.17
20710;BME280;10516;51.518;9.864;2023-03-07T04:18:06;96851.94;;;1.33;84.94
20710;BME280;10516;51.518;9.864;2023-03-07T04:20:31;96849.47;;;1.26;85.31
20710;BME280;10516;51.518;9.864;2023-03-07T04:22:56;96845.88;;;1.16;85.44
20710;BME280;10516;51.518;9.864;2023-03-07T04:25:21;96849.16;;;1.23;85.67
20710;BME280;10516;51.518;9.864;2023-03-07T04:27:47;96854.41;;;1.23;85.76
20710;BME280;10516;51.518;9.864;2023-03-07T04:30:12;96848.13;;;1.24;85.85
20710;BME280;10516;51.518;9.864;2023-03-07T04:32:37;96846.06;;;1.26;85.77
20710;BME280;10516;51.518;9.864;2023-03-07T04:35:03;96843.72;;;1.29;85.68
20710;BME280;10516;51.518;9.864;2023-03-07T04:37:28;96845.34;;;1.30;85.50
20710;BME280;10516;51.518;9.864;2023-03-07T04:39:53;96834.84;;;1.30;86.07
20710;BME280;10516;51.518;9.864;2023-03-07T04:42:19;96835.63;;;1.31;85.99
20710;BME280;10516;51.518;9.864;2023-03-07T04:44:44;96831.78;;;1.38;85.48
20710;BME280;10516;51.518;9.864;2023-03-07T04:47:09;96832.91;;;1.42;85.42
20710;BME280;10516;51.518;9.864;2023-03-07T04:49:34;96831.00;;;1.38;85.46
20710;BME280;10516;51.518;9.864;2023-03-07T04:52:00;96828.69;;;1.41;85.37
20710;BME280;10516;51.518;9.864;2023-03-07T04:54:25;96824.41;;;1.35;85.63
20710;BME280;10516;51.518;9.864;2023-03-07T04:56:50;96822.56;;;1.36;85.53
20710;BME280;10516;51.518;9.864;2023-03-07T04:59:15;96822.38;;;1.42;85.33
20710;BME280;10516;51.518;9.864;2023-03-07T05:01:40;96821.28;;;1.38;85.28
20710;BME280;10516;51.518;9.864;2023-03-07T05:04:06;96831.31;;;1.41;85.61
20710;BME280;10516;51.518;9.864;2023-03-07T05:06:31;96835.78;;;1.41;85.80
20710;BME280;10516;51.518;9.864;2023-03-07T05:08:56;96827.03;;;1.35;85.97
20710;BME280;10516;51.518;9.864;2023-03-07T05:11:21;96820.47;;;1.38;86.07
20710;BME280;10516;51.518;9.864;2023-03-07T05:13:47;96825.91;;;1.48;85.40
20710;BME280;10516;51.518;9.864;2023-03-07T05:16:12;96827.34;;;1.39;85.90
20710;BME280;10516;51.518;9.864;2023-03-07T05:18:37;96814.19;;;1.39;86.17
20710;BME280;10516;51.518;9.864;2023-03-07T05:21:02;96822.72;;;1.46;85.59
20710;BME280;10516;51.518;9.864;2023-03-07T05:23:28;96824.56;;;1.45;85.96
20710;BME280;10516;51.518;9.864;2023-03-07T05:25:53;96819.53;;;1.44;86.26
20710;BME280;10516;51.518;9.864;2023-03-07T05:28:18;96818.56;;;1.50;85.67
20710;BME280;10516;51.518;9.864;2023-03-07T05:30:44;96805.84;;;1.42;85.98
20710;BME280;10516;51.518;9.864;2023-03-07T05:33:09;96811.50;;;1.50;86.02
20710;BME280;10516;51.518;9.864;2023-03-07T05:35:34;96814.03;;;1.45;86.07
20710;BME280;10516;51.518;9.864;2023-03-07T05:37:59;96793.91;;;1.34;86.55
20710;BME280;10516;51.518;9.864;2023-03-07T05:40:25;96799.25;;;1.39;86.59
20710;BME280;10516;51.518;9.864;2023-03-07T05:42:50;96797.16;;;1.41;86.18
20710;BME280;10516;51.518;9.864;2023-03-07T05:45:15;96796.44;;;1.46;86.17
20710;BME280;10516;51.518;9.864;2023-03-07T05:47:41;96791.00;;;1.52;85.92
20710;BME280;10516;51.518;9.864;2023-03-07T05:50:06;96793.09;;;1.50;86.05
20710;BME280;10516;51.518;9.864;2023-03-07T05:52:32;96793.25;;;1.44;86.08
20710;BME280;10516;51.518;9.864;2023-03-07T05:54:57;96790.75;;;1.54;86.12
20710;BME280;10516;51.518;9.864;2023-03-07T05:57:23;96783.19;;;1.58;85.96
20710;BME280;10516;51.518;9.864;2023-03-07T05:59:48;96788.78;;;1.44;86.04
20710;BME280;10516;51.518;9.864;2023-03-07T06:02:13;96784.31;;;1.62;85.96
20710;BME280;10516;51.518;9.864;2023-03-07T06:04:38;96782.41;;;1.57;85.85
20710;BME280;10516;51.518;9.864;2023-03-07T06:07:04;96783.97;;;1.58;86.09
20710;BME280;10516;51.518;9.864;2023-03-07T06:09:29;96778.44;;;1.55;85.79
20710;BME280;10516;51.518;9.864;2023-03-07T06:11:54;96782.25;;;1.47;86.67
20710;BME280;10516;51.518;9.864;2023-03-07T06:14:19;96783.72;;;1.60;86.14
20710;BME280;10516;51.518;9.864;2023-03-07T06:16:45;96785.03;;;1.57;85.97
20710;BME280;10516;51.518;9.864;2023-03-07T06:19:10;96781.09;;;1.60;86.11
20710;BME280;10516;51.518;9.864;2023-03-07T06:21:35;96789.25;;;1.58;86.41
20710;BME280;10516;51.518;9.864;2023-03-07T06:24:01;96776.81;;;1.53;86.06
20710;BME280;10516;51.518;9.864;2023-03-07T06:26:26;96780.50;;;1.52;86.29
20710;BME280;10516;51.518;9.864;2023-03-07T06:28:51;96789.00;;;1.60;86.03
20710;BME280;10516;51.518;9.864;2023-03-07T06:31:17;96781.91;;;1.60;86.23
20710;BME280;10516;51.518;9.864;2023-03-07T06:33:43;96781.91;;;1.60;86.30
20710;BME280;10516;51.518;9.864;2023-03-07T06:36:10;96786.44;;;1.65;86.11
20710;BME280;10516;51.518;9.864;2023-03-07T06:38:35;96787.41;;;1.59;86.59
20710;BME280;10516;51.518;9.864;2023-03-07T06:41:01;96782.88;;;1.54;86.62
20710;BME280;10516;51.518;9.864;2023-03-07T06:43:26;96774.66;;;1.67;86.46
20710;BME280;10516;51.518;9.864;2023-03-07T06:45:51;96790.25;;;1.74;86.15
20710;BME280;10516;51.518;9.864;2023-03-07T06:48:16;96785.53;;;1.76;85.73
20710;BME280;10516;51.518;9.864;2023-03-07T06:50:42;96785.53;;;1.76;86.29
20710;BME280;10516;51.518;9.864;2023-03-07T06:53:07;96782.53;;;1.67;86.42
20710;BME280;10516;51.518;9.864;2023-03-07T06:55:33;96787.50;;;1.64;86.68
20710;BME280;10516;51.518;9.864;2023-03-07T06:57:58;96781.50;;;1.68;86.35
20710;BME280;10516;51.518;9.864;2023-03-07T07:00:23;96783.34;;;1.68;86.85
20710;BME280;10516;51.518;9.864;2023-03-07T07:02:48;96780.75;;;1.73;86.77
20710;BME280;10516;51.518;9.864;2023-03-07T07:05:14;96787.31;;;1.70;86.83
20710;BME280;10516;51.518;9.864;2023-03-07T07:07:39;96778.13;;;1.73;86.76
20710;BME280;10516;51.518;9.864;2023-03-07T07:10:04;96781.25;;;1.70;87.21
20710;BME280;10516;51.518;9.864;2023-03-07T07:12:30;96782.38;;;1.74;86.91
20710;BME280;10516;51.518;9.864;2023-03-07T07:14:55;96772.66;;;1.74;87.05
20710;BME280;10516;51.518;9.864;2023-03-07T07:17:20;96779.31;;;1.82;86.70
20710;BME280;10516;51.518;9.864;2023-03-07T07:19:45;96781.25;;;1.70;87.36
20710;BME280;10516;51.518;9.864;2023-03-07T07:22:11;96777.09;;;1.74;87.34
20710;BME280;10516;51.518;9.864;2023-03-07T07:24:37;96777.94;;;1.79;87.26
20710;BME280;10516;51.518;9.864;2023-03-07T07:27:02;96771.38;;;1.77;87.38
20710;BME280;10516;51.518;9.864;2023-03-07T07:29:27;96780.09;;;1.82;87.44
20710;BME280;10516;51.518;9.864;2023-03-07T07:31:52;96764.81;;;1.79;87.18
20710;BME280;10516;51.518;9.864;2023-03-07T07:34:18;96769.41;;;1.89;86.83
20710;BME280;10516;51.518;9.864;2023-03-07T07:36:43;96770.75;;;1.91;87.25
20710;BME280;10516;51.518;9.864;2023-03-07T07:39:09;96767.31;;;1.91;86.98
20710;BME280;10516;51.518;9.864;2023-03-07T07:41:34;96769.22;;;1.95;86.54
20710;BME280;10516;51.518;9.864;2023-03-07T07:43:59;96769.22;;;1.95;87.10
20710;BME280;10516;51.518;9.864;2023-03-07T07:46:25;96765.06;;;1.99;86.88
20710;BME280;10516;51.518;9.864;2023-03-07T07:48:52;96763.78;;;2.02;86.84
20710;BME280;10516;51.518;9.864;2023-03-07T07:51:17;96757.72;;;2.01;87.31
20710;BME280;10516;51.518;9.864;2023-03-07T07:53:42;96765.13;;;2.04;86.55
20710;BME280;10516;51.518;9.864;2023-03-07T07:56:08;96762.44;;;1.99;86.91
20710;BME280;10516;51.518;9.864;2023-03-07T07:58:34;96764.59;;;2.02;87.00
20710;BME280;10516;51.518;9.864;2023-03-07T08:00:59;96764.47;;;2.14;87.17
20710;BME280;10516;51.518;9.864;2023-03-07T08:03:24;96766.84;;;2.15;86.96
20710;BME280;10516;51.518;9.864;2023-03-07T08:05:49;96768.56;;;2.05;87.36
20710;BME280;10516;51.518;9.864;2023-03-07T08:08:16;96761.22;;;2.07;87.40
20710;BME280;10516;51.518;9.864;2023-03-07T08:10:41;96759.44;;;2.12;87.22
20710;BME280;10516;51.518;9.864;2023-03-07T08:13:17;96753.97;;;2.19;87.09
20710;BME280;10516;51.518;9.864;2023-03-07T08:15:42;96755.59;;;2.20;87.19
20710;BME280;10516;51.518;9.864;2023-03-07T08:18:07;96753.91;;;2.36;86.62
20710;BME280;10516;51.518;9.864;2023-03-07T08:20:35;96744.41;;;2.35;86.58
20710;BME280;10516;51.518;9.864;2023-03-07T08:23:00;96745.94;;;2.31;86.78
20710;BME280;10516;51.518;9.864;2023-03-07T08:25:25;96734.16;;;2.38;86.82
20710;BME280;10516;51.518;9.864;2023-03-07T08:27:51;96746.56;;;2.38;86.86
20710;BME280;10516;51.518;9.864;2023-03-07T08:30:20;96745.06;;;2.47;86.96
20710;BME280;10516;51.518;9.864;2023-03-07T08:32:47;96751.63;;;2.44;87.43
20710;BME280;10516;51.518;9.864;2023-03-07T08:35:12;96745.03;;;2.42;87.07
20710;BME280;10516;51.518;9.864;2023-03-07T08:37:37;96746.84;;;2.41;86.84
20710;BME280;10516;51.518;9.864;2023-03-07T08:40:03;96743.66;;;2.39;87.44
20710;BME280;10516;51.518;9.864;2023-03-07T08:42:29;96735.28;;;2.42;87.46
20710;BME280;10516;51.518;9.864;2023-03-07T08:44:54;96743.34;;;2.57;86.80
20710;BME280;10516;51.518;9.864;2023-03-07T08:47:19;96742.00;;;2.55;86.54
20710;BME280;10516;51.518;9.864;2023-03-07T08:49:44;96739.34;;;2.55;86.59
20710;BME280;10516;51.518;9.864;2023-03-07T08:52:10;96728.34;;;2.58;86.69
20710;BME280;10516;51.518;9.864;2023-03-07T08:54:35;96734.91;;;2.60;86.93
20710;BME280;10516;51.518;9.864;2023-03-07T08:57:00;96731.75;;;2.58;86.96
20710;BME280;10516;51.518;9.864;2023-03-07T08:59:25;96739.44;;;2.65;86.85
20710;BME280;10516;51.518;9.864;2023-03-07T09:01:51;96731.06;;;2.68;86.54
20710;BME280;10516;51.518;9.864;2023-03-07T09:04:16;96732.63;;;2.69;86.83
20710;BME280;10516;51.518;9.864;2023-03-07T09:06:41;96716.88;;;2.74;86.67
20710;BME280;10516;51.518;9.864;2023-03-07T09:09:06;96736.03;;;2.64;86.94
20710;BME280;10516;51.518;9.864;2023-03-07T09:11:32;96734.81;;;2.77;87.27
20710;BME280;10516;51.518;9.864;2023-03-07T09:13:57;96733.41;;;2.69;87.36
20710;BME280;10516;51.518;9.864;2023-03-07T09:16:22;96717.97;;;2.78;87.05
20710;BME280;10516;51.518;9.864;2023-03-07T09:18:47;96731.94;;;2.78;87.22
20710;BME280;10516;51.518;9.864;2023-03-07T09:21:13;96723.53;;;2.81;86.74
20710;BME280;10516;51.518;9.864;2023-03-07T09:23:38;96725.56;;;2.74;87.66
20710;BME280;10516;51.518;9.864;2023-03-07T09:26:03;96711.13;;;2.82;87.38
20710;BME280;10516;51.518;9.864;2023-03-07T09:28:29;96720.38;;;2.84;86.87
20710;BME280;10516;51.518;9.864;2023-03-07T09:30:55;96718.06;;;2.93;86.81
20710;BME280;10516;51.518;9.864;2023-03-07T09:33:20;96708.88;;;2.90;86.89
20710;BME280;10516;51.518;9.864;2023-03-07T09:35:45;96711.22;;;2.92;87.25
20710;BME280;10516;51.518;9.864;2023-03-07T09:38:11;96706.75;;;2.92;87.51
20710;BME280;10516;51.518;9.864;2023-03-07T09:40:36;96714.13;;;2.90;87.39
20710;BME280;10516;51.518;9.864;2023-03-07T09:43:17;96705.44;;;2.90;87.80
20710;BME280;10516;51.518;9.864;2023-03-07T09:48:40;96703.13;;;2.98;87.70
20710;BME280;10516;51.518;9.864;2023-03-07T09:53:44;96704.41;;;2.96;87.44
20710;BME280;10516;51.518;9.864;2023-03-07T09:56:21;96691.19;;;2.91;87.98
20710;BME280;10516;51.518;9.864;2023-03-07T09:58:49;96689.19;;;3.03;87.01
20710;BME280;10516;51.518;9.864;2023-03-07T10:01:15;96677.91;;;3.13;86.42
20710;BME280;10516;51.518;9.864;2023-03-07T10:06:14;96688.47;;;3.18;86.90
20710;BME280;10516;51.518;9.864;2023-03-07T10:08:42;96679.56;;;3.24;86.65
20710;BME280;10516;51.518;9.864;2023-03-07T10:24:08;96670.53;;;3.15;87.50
20710;BME280;10516;51.518;9.864;2023-03-07T10:26:49;96673.78;;;3.27;87.09
20710;BME280;10516;51.518;9.864;2023-03-07T10:29:18;96683.75;;;3.20;88.35
20710;BME280;10516;51.518;9.864;2023-03-07T10:31:47;96675.84;;;3.20;87.70
20710;BME280;10516;51.518;9.864;2023-03-07T10:34:17;96673.75;;;3.22;87.40
20710;BME280;10516;51.518;9.864;2023-03-07T10:36:45;96672.47;;;3.29;87.38
20710;BME280;10516;51.518;9.864;2023-03-07T10:39:22;96684.88;;;3.29;87.67
20710;BME280;10516;51.518;9.864;2023-03-07T10:41:48;96671.09;;;3.22;88.47
20710;BME280;10516;51.518;9.864;2023-03-07T10:44:14;96670.66;;;3.35;87.94
20710;BME280;10516;51.518;9.864;2023-03-07T10:46:42;96679.63;;;3.39;88.38
20710;BME280;10516;51.518;9.864;2023-03-07T10:49:10;96659.34;;;3.39;88.61
20710;BME280;10516;51.518;9.864;2023-03-07T10:54:15;96669.63;;;3.41;89.15
20710;BME280;10516;51.518;9.864;2023-03-07T10:57:02;96670.19;;;3.43;88.38
20710;BME280;10516;51.518;9.864;2023-03-07T10:59:26;96665.41;;;3.40;88.60
20710;BME280;10516;51.518;9.864;2023-03-07T11:01:53;96662.81;;;3.45;88.63
20710;BME280;10516;51.518;9.864;2023-03-07T11:04:19;96672.00;;;3.37;88.65
20710;BME280;10516;51.518;9.864;2023-03-07T11:06:52;96668.06;;;3.40;88.39
20710;BME280;10516;51.518;9.864;2023-03-07T11:11:53;96683.16;;;3.49;87.93
20710;BME280;10516;51.518;9.864;2023-03-07T11:14:19;96676.00;;;3.50;87.72
20710;BME280;10516;51.518;9.864;2023-03-07T11:22:15;96703.75;;;3.57;86.90
20710;BME280;10516;51.518;9.864;2023-03-07T11:24:41;96702.91;;;3.52;86.88
20710;BME280;10516;51.518;9.864;2023-03-07T11:27:15;96707.16;;;3.53;86.61
20710;BME280;10516;51.518;9.864;2023-03-07T11:29:43;96721.28;;;3.32;86.98
20710;BME280;10516;51.518;9.864;2023-03-07T11:32:13;96722.44;;;3.09;87.75
20710;BME280;10516;51.518;9.864;2023-03-07T11:34:49;96721.03;;;2.96;86.32
20710;BME280;10516;51.518;9.864;2023-03-07T11:37:22;96731.84;;;3.00;86.66
20710;BME280;10516;51.518;9.864;2023-03-07T11:42:22;96721.41;;;2.78;86.65
20710;BME280;10516;51.518;9.864;2023-03-07T12:08:06;96738.94;;;2.99;86.29
20710;BME280;10516;51.518;9.864;2023-03-07T12:18:36;96745.34;;;3.09;86.16
20710;BME280;10516;51.518;9.864;2023-03-07T12:24:02;96745.34;;;3.09;85.90
20710;BME280;10516;51.518;9.864;2023-03-07T12:26:39;96749.47;;;2.99;86.42
20710;BME280;10516;51.518;9.864;2023-03-07T12:29:19;96749.19;;;2.96;86.25
20710;BME280;10516;51.518;9.864;2023-03-07T12:31:49;96749.13;;;2.86;86.51
20710;BME280;10516;51.518;9.864;2023-03-07T12:34:49;96752.50;;;2.81;86.20
20710;BME280;10516;51.518;9.864;2023-03-07T12:37:24;96758.13;;;2.95;85.60
20710;BME280;10516;51.518;9.864;2023-03-07T12:39:56;96755.44;;;2.85;86.07
20710;BME280;10516;51.518;9.864;2023-03-07T12:44:49;96760.31;;;2.71;86.00
20710;BME280;10516;51.518;9.864;2023-03-07T12:52:11;96754.47;;;2.64;86.85
20710;BME280;10516;51.518;9.864;2023-03-07T12:54:39;96766.56;;;2.92;86.16
20710;BME280;10516;51.518;9.864;2023-03-07T12:59:52;96764.81;;;2.76;86.78
20710;BME280;10516;51.518;9.864;2023-03-07T13:02:23;96763.03;;;2.81;86.53
20710;BME280;10516;51.518;9.864;2023-03-07T13:04:49;96768.69;;;2.95;86.31
20710;BME280;10516;51.518;9.864;2023-03-07T13:07:19;96775.63;;;3.06;85.57
20710;BME280;10516;51.518;9.864;2023-03-07T13:09:47;96771.63;;;2.98;86.25
20710;BME280;10516;51.518;9.864;2023-03-07T13:15:44;96785.88;;;3.02;85.81
20710;BME280;10516;51.518;9.864;2023-03-07T13:28:00;96787.56;;;3.14;85.30
20710;BME280;10516;51.518;9.864;2023-03-07T13:30:26;96783.84;;;3.10;85.39
20710;BME280;10516;51.518;9.864;2023-03-07T13:32:54;96790.00;;;2.93;86.22
20710;BME280;10516;51.518;9.864;2023-03-07T13:40:54;96785.06;;;3.02;85.79
20710;BME280;10516;51.518;9.864;2023-03-07T13:53:32;96784.41;;;2.85;85.54
20710;BME280;10516;51.518;9.864;2023-03-07T13:58:26;96780.94;;;2.79;85.61
20710;BME280;10516;51.518;9.864;2023-03-07T14:03:45;96796.16;;;2.72;85.33
20710;BME280;10516;51.518;9.864;2023-03-07T14:06:21;96800.66;;;2.77;85.51
20710;BME280;10516;51.518;9.864;2023-03-07T14:08:47;96792.63;;;2.62;85.66
20710;BME280;10516;51.518;9.864;2023-03-07T14:16:16;96797.63;;;1.93;86.57
20710;BME280;10516;51.518;9.864;2023-03-07T14:18:56;96807.81;;;2.55;85.86
20710;BME280;10516;51.518;9.864;2023-03-07T14:26:34;96801.09;;;2.42;85.47
20710;BME280;10516;51.518;9.864;2023-03-07T14:31:39;96812.03;;;2.34;85.91
20710;BME280;10516;51.518;9.864;2023-03-07T14:39:20;96798.78;;;2.24;86.47
20710;BME280;10516;51.518;9.864;2023-03-07T14:41:51;96805.41;;;2.05;86.68
20710;BME280;10516;51.518;9.864;2023-03-07T14:49:39;96803.50;;;2.00;85.40
20710;BME280;10516;51.518;9.864;2023-03-07T14:52:12;96810.84;;;1.98;86.79
20710;BME280;10516;51.518;9.864;2023-03-07T14:54:38;96810.41;;;2.28;85.65
20710;BME280;10516;51.518;9.864;2023-03-07T14:57:03;96821.34;;;1.98;86.38
20710;BME280;10516;51.518;9.864;2023-03-07T14:59:28;96833.59;;;2.09;86.25
20710;BME280;10516;51.518;9.864;2023-03-07T15:01:54;96829.13;;;2.32;85.48
20710;BME280;10516;51.518;9.864;2023-03-07T15:04:23;96826.06;;;2.40;85.56
20710;BME280;10516;51.518;9.864;2023-03-07T15:06:59;96825.94;;;2.29;85.80
20710;BME280;10516;51.518;9.864;2023-03-07T15:09:24;96825.09;;;2.02;85.68
20710;BME280;10516;51.518;9.864;2023-03-07T15:11:55;96827.09;;;2.17;85.44
20710;BME280;10516;51.518;9.864;2023-03-07T15:14:25;96823.09;;;2.09;85.85
20710;BME280;10516;51.518;9.864;2023-03-07T15:16:56;96818.63;;;1.72;86.55
20710;BME280;10516;51.518;9.864;2023-03-07T15:19:38;96825.19;;;2.34;85.74
20710;BME280;10516;51.518;9.864;2023-03-07T15:22:10;96822.81;;;2.33;85.41
20710;BME280;10516;51.518;9.864;2023-03-07T15:24:38;96817.31;;;2.34;85.21
20710;BME280;10516;51.518;9.864;2023-03-07T15:27:08;96812.00;;;2.29;85.27
20710;BME280;10516;51.518;9.864;2023-03-07T15:29:34;96808.38;;;2.13;85.77